• Join FlightAware (Why Join?)
  • Login
  • US Flag 
01:34AM EDT


 

Airport Tracker/Info


-or-


 

Live Flight TrackerFlight Track Log ✈ KAP927 ✈ 01-Jun-2013 ✈ KOGS - KALB

Flight Track Log - Related Links

Times and Time Zones

All times are in EDT time to prevent confusion due to time zone crossing. See the KAP927 flight status page for this flight to view local times or setup timezone preferences in your user account.

Time Position Orientation Groundspeed Altitude Reporting Facility
EDT Latitude Longitude Course Direction KTS MPH feet Rate Location/Type
07:09AM 44.5019 -75.2547 149° Southeast 154 177 4,900  Level Boston Center
07:10AM 44.4694 -75.2269 149° Southeast 148 170 5,600 600 Climbing Boston Center
07:11AM 44.4386 -75.2022 150° Southeast 137 158 6,200 540 Climbing Boston Center
07:12AM 44.4039 -75.1717 148° Southeast 137 158 6,700 540 Climbing Boston Center
07:13AM 44.3692 -75.1439 150° Southeast 137 158 7,300 360 Climbing Boston Center
07:14AM 44.4806 -75.2862 149° Southeast  Level Estimated
07:14AM 44.3344 -75.1103 145° Southeast 142 163 7,500  Level Boston Center
07:15AM 44.2936 -75.0794 152° Southeast 148 170 7,600  Climbing Boston Center
07:16AM 44.2528 -75.0458 149° Southeast 161 185 7,600  Level Boston Center
07:17AM 44.2097 -75.0092 149° Southeast 173 199 7,600  Level Boston Center
07:18AM 44.1689 -74.9697 145° Southeast 179 206 7,600 -60 Level Boston Center
07:19AM 44.1278 -74.9392 152° Southeast 179 206 7,500  Descending Boston Center
07:20AM 44.0889 -74.9058 148° Southeast 179 206 7,600  Climbing Boston Center
07:21AM 44.0481 -74.8722 149° Southeast 179 206 7,600  Level Boston Center
07:22AM 44.0072 -74.8389 150° Southeast 179 206 7,600  Level Boston Center
07:23AM 43.9681 -74.8056 149° Southeast 174 200 7,600  Level Boston Center
07:24AM 43.9272 -74.7722 150° Southeast 174 200 7,600  Level Boston Center
07:25AM 43.8883 -74.7389 148° Southeast 174 200 7,600  Level Boston Center
07:26AM 43.8556 -74.7119 149° Southeast 174 200 7,600  Level Boston Center
07:27AM 43.8061 -74.6725 150° Southeast 174 200 7,600  Level Boston Center
07:28AM 43.7672 -74.6367 146° Southeast 174 200 7,600  Level Boston Center
07:29AM 43.7261 -74.6036 150° Southeast 174 200 7,600  Level Boston Center
07:30AM 43.6872 -74.5706 148° Southeast 174 200 7,600  Level Boston Center
07:31AM 43.6461 -74.5347 148° Southeast 174 200 7,600  Level Boston Center
07:32AM 43.6053 -74.5017 150° Southeast 174 200 7,600  Level Boston Center
07:33AM 43.5639 -74.4717 152° Southeast 174 200 7,600  Level Boston Center
07:34AM 43.5250 -74.4389 149° Southeast 174 200 7,600  Level Boston Center
07:35AM 43.4858 -74.4061 149° Southeast 174 200 7,600  Level Boston Center
07:36AM 43.4489 -74.3733 147° Southeast 167 192 7,700  Climbing Boston Center
07:37AM 43.4142 -74.3436 148° Southeast 167 192 7,700 -120 Level Boston Center
07:37AM 43.4058 -74.3378 153° Southeast 174 200 7,600  Descending Boston Center
07:38AM 43.3708 -74.3139 154° Southeast 168 193 7,700  Climbing Boston Center
07:38AM 43.3606 -74.3019 140° Southeast 174 200 7,600 -120 Descending Boston Center
07:39AM 43.3278 -74.2753 149° Southeast 171 197 7,600  Level Boston Center
07:40AM 43.2844 -74.2397 149° Southeast 171 197 7,600  Level Boston Center
07:41AM 43.2494 -74.2075 146° Southeast 173 199 7,600 -240 Level Boston Center
07:42AM 43.2042 -74.1747 152° Southeast 177 204 7,200 -420 Descending Boston Center
07:43AM 43.1589 -74.1364 148° Southeast 188 216 6,800 -420 Descending Boston Center
07:44AM 43.1178 -74.1042 150° Southeast 187 215 6,400 -600 Descending Boston Center
07:44AM 43.1053 -74.0925 146° Southeast 184 212 6,100 -540 Descending Boston Center
07:45AM 43.0744 -74.0689 151° Southeast 183 211 5,900 -540 Descending Boston Center
07:45AM 43.0622 -74.0569 144° Southeast 179 206 5,600 -600 Descending Boston Center
07:46AM 43.0353 -74.0364 151° Southeast 179 206 5,400 -420 Descending Boston Center
07:46AM 43.0189 -74.0247 153° Southeast 179 206 5,200 -480 Descending Boston Center
07:47AM 42.9878 -74.0069 157° South 178 205 4,900 -600 Descending Boston Center
07:47AM 42.9753 -73.9953 146° Southeast 179 206 4,600 -600 Descending Boston Center
07:48AM 42.9300 -73.9658 155° Southeast 179 206 4,200 -540 Descending Boston Center
07:49AM 42.8928 -73.9308 145° Southeast 185 213 3,700 -540 Descending Boston Center
07:50AM 42.8558 -73.8872 139° Southeast 187 215 3,200 -660 Descending Boston Center
07:51AM 42.8211 -73.8383 134° Southeast 174 200 2,400 -960 Descending Boston Center
07:52AM 42.7881 -73.8094 147° Southeast 134 154 1,300 -1,140 Descending Boston Center
07:54AM 42.7491 -73.8020 160° South  Level Estimated
08:01AM 42.7491 -73.8020 160° South  Level Estimated
08:02AM 42.7491 -73.8020 160° South  Level Estimated
08:03AM 42.7491 -73.8020 160° South  Level Estimated
08:04AM 42.7491 -73.8020 160° South  Level Estimated